createdAt,value
2018-05-31T00:02:14.389Z,19.17
2018-05-31T00:04:44.978Z,20.90
2018-05-31T00:07:15.423Z,18.80
2018-05-31T00:09:45.971Z,19.80
2018-05-31T00:12:16.513Z,19.10
2018-05-31T00:14:47.086Z,18.67
2018-05-31T00:17:17.518Z,19.50
2018-05-31T00:19:48.033Z,19.60
2018-05-31T00:22:18.542Z,19.13
2018-05-31T00:24:49.075Z,20.23
2018-05-31T00:27:19.518Z,19.87
2018-05-31T00:29:49.985Z,20.40
2018-05-31T00:32:20.403Z,20.43
2018-05-31T00:34:50.946Z,20.47
2018-05-31T00:37:21.391Z,20.10
2018-05-31T00:39:51.997Z,20.10
2018-05-31T00:42:22.452Z,19.60
2018-05-31T00:44:53.739Z,17.93
2018-05-31T00:47:24.177Z,16.73
2018-05-31T00:49:55.574Z,17.77
2018-05-31T00:52:25.992Z,17.87
2018-05-31T00:54:57.319Z,17.57
2018-05-31T00:57:27.815Z,17.77
2018-05-31T00:59:58.414Z,18.47
2018-05-31T01:02:28.866Z,19.17
2018-05-31T01:04:59.392Z,19.37
2018-05-31T01:07:29.944Z,19.60
2018-05-31T01:10:00.563Z,18.47
2018-05-31T01:12:31.102Z,18.70
2018-05-31T01:15:01.829Z,17.97
2018-05-31T01:17:32.362Z,17.63
2018-05-31T01:20:02.996Z,17.37
2018-05-31T01:22:34.382Z,17.33
2018-05-31T01:25:05.096Z,16.77
2018-05-31T01:27:35.610Z,17.83
2018-05-31T01:30:06.406Z,16.63
2018-05-31T01:32:36.984Z,17.27
2018-05-31T01:35:07.643Z,17.30
2018-05-31T01:37:38.943Z,17.40
2018-05-31T01:40:09.587Z,17.10
2018-05-31T01:42:40.221Z,17.90
2018-05-31T01:45:10.842Z,17.27
2018-05-31T01:47:41.292Z,18.00
2018-05-31T01:50:12.020Z,16.87
2018-05-31T01:52:42.615Z,17.33
2018-05-31T01:55:13.196Z,17.63
2018-05-31T01:57:44.503Z,17.60
2018-05-31T02:00:15.219Z,17.20
2018-05-31T02:02:45.739Z,18.80
2018-05-31T02:05:16.404Z,20.20
2018-05-31T02:07:46.933Z,19.30
2018-05-31T02:10:17.562Z,19.63
2018-05-31T02:12:48.191Z,19.47
2018-05-31T02:15:18.805Z,21.53
2018-05-31T02:17:49.420Z,21.30
2018-05-31T02:20:20.098Z,21.87
2018-05-31T02:22:50.739Z,20.63
2018-05-31T02:25:21.335Z,21.53
2018-05-31T02:27:51.870Z,20.57
2018-05-31T02:30:22.727Z,21.10
2018-05-31T02:32:53.361Z,21.97
2018-05-31T02:35:23.985Z,22.87
2018-05-31T02:37:54.521Z,22.03
2018-05-31T02:40:25.942Z,22.13
2018-05-31T02:42:57.285Z,22.67
2018-05-31T02:45:27.915Z,22.07
2018-05-31T02:47:58.424Z,22.83
2018-05-31T02:50:29.028Z,22.60
2018-05-31T02:52:59.600Z,21.73
2018-05-31T02:55:30.208Z,22.10
2018-05-31T02:58:00.700Z,22.47
2018-05-31T03:00:31.266Z,21.97
2018-05-31T03:03:02.460Z,20.73
2018-05-31T03:05:32.973Z,20.53
2018-05-31T03:08:03.463Z,20.73
2018-05-31T03:10:34.017Z,21.77
2018-05-31T03:13:04.524Z,19.13
2018-05-31T03:15:35.160Z,18.10
2018-05-31T03:18:05.566Z,17.40
2018-05-31T03:20:36.081Z,16.97
2018-05-31T03:23:06.538Z,15.87
2018-05-31T03:25:37.846Z,15.60
2018-05-31T03:28:09.076Z,14.70
2018-05-31T03:30:39.607Z,14.53
2018-05-31T03:33:10.034Z,13.53
2018-05-31T03:35:40.594Z,13.07
2018-05-31T03:38:11.786Z,13.57
2018-05-31T03:40:42.314Z,14.10
2018-05-31T03:43:12.829Z,13.80
2018-05-31T03:45:43.356Z,13.00
2018-05-31T03:48:13.861Z,13.00
2018-05-31T03:50:45.180Z,13.30
2018-05-31T03:53:15.636Z,13.13
2018-05-31T03:55:46.960Z,13.23
2018-05-31T03:58:17.477Z,12.90
2018-05-31T04:00:48.075Z,13.43
2018-05-31T04:03:18.532Z,13.00
2018-05-31T04:05:49.060Z,12.07
2018-05-31T04:08:19.547Z,11.83
2018-05-31T04:10:50.242Z,12.07
2018-05-31T04:13:20.650Z,12.67
2018-05-31T04:15:51.999Z,12.03
2018-05-31T04:18:22.487Z,10.77
2018-05-31T04:20:54.054Z,10.17
2018-05-31T04:23:24.550Z,9.13
2018-05-31T04:25:55.195Z,9.40
2018-05-31T04:28:25.673Z,8.83
2018-05-31T04:30:55.841Z,8.57
2018-05-31T04:33:25.865Z,8.67
2018-05-31T04:35:56.667Z,8.43
2018-05-31T04:38:26.628Z,8.80
2018-05-31T04:40:57.470Z,9.20
2018-05-31T04:43:27.430Z,9.07
2018-05-31T04:45:57.437Z,9.20
2018-05-31T04:48:27.478Z,9.43
2018-05-31T04:50:57.554Z,8.90
2018-05-31T04:53:27.638Z,9.70
2018-05-31T04:55:57.602Z,9.10
2018-05-31T04:58:27.640Z,9.30
2018-05-31T05:00:57.677Z,9.87
2018-05-31T05:03:27.692Z,9.93
2018-05-31T05:05:57.677Z,9.90
2018-05-31T05:08:27.741Z,10.30
2018-05-31T05:10:57.718Z,10.30
2018-05-31T05:13:27.725Z,9.50
2018-05-31T05:15:57.717Z,10.90
2018-05-31T05:18:28.528Z,11.00
2018-05-31T05:20:58.526Z,10.97
2018-05-31T05:23:28.543Z,11.67
2018-05-31T05:25:58.621Z,10.77
2018-05-31T05:28:29.439Z,10.43
2018-05-31T05:31:00.180Z,11.10
2018-05-31T05:33:30.959Z,11.20
2018-05-31T05:36:01.723Z,11.80
2018-05-31T05:38:32.955Z,11.30
2018-05-31T05:41:03.430Z,12.93
2018-05-31T05:43:33.996Z,12.00
2018-05-31T05:46:04.126Z,12.73
2018-05-31T05:48:34.721Z,13.00
2018-05-31T05:51:05.148Z,12.47
2018-05-31T05:53:35.677Z,13.10
2018-05-31T05:56:06.501Z,16.37
2018-05-31T05:58:36.968Z,17.30
2018-05-31T06:01:07.411Z,17.40
2018-05-31T06:03:37.883Z,16.83
2018-05-31T06:06:09.218Z,15.60
2018-05-31T06:08:40.538Z,13.87
2018-05-31T06:11:11.010Z,17.27
2018-05-31T06:13:41.117Z,15.33
2018-05-31T06:16:11.181Z,17.20
2018-05-31T06:18:41.214Z,15.30
2018-05-31T06:21:11.219Z,18.20
2018-05-31T06:23:41.262Z,17.33
2018-05-31T06:26:12.064Z,17.23
2018-05-31T06:28:42.246Z,17.30
2018-05-31T06:31:12.247Z,16.10
2018-05-31T06:33:42.269Z,15.90
2018-05-31T06:36:13.016Z,18.00
2018-05-31T06:38:43.809Z,16.73
2018-05-31T06:41:13.845Z,17.20
2018-05-31T06:43:43.856Z,16.50
2018-05-31T06:46:15.421Z,17.17
2018-05-31T06:48:45.609Z,17.70
2018-05-31T06:51:15.621Z,17.97
2018-05-31T06:53:45.674Z,18.27
2018-05-31T06:56:27.139Z,17.70
2018-05-31T06:58:59.690Z,18.13
2018-05-31T07:01:29.652Z,17.80
2018-05-31T07:03:59.675Z,17.80
2018-05-31T07:06:30.408Z,17.27
2018-05-31T07:09:01.178Z,17.93
2018-05-31T07:11:31.179Z,16.70
2018-05-31T07:14:01.206Z,16.60
2018-05-31T07:16:31.223Z,16.93
2018-05-31T07:19:01.503Z,16.57
2018-05-31T07:21:31.479Z,14.83
2018-05-31T07:24:01.482Z,12.93
2018-05-31T07:26:31.473Z,15.73
2018-05-31T07:29:02.409Z,14.77
2018-05-31T07:31:32.587Z,14.27
2018-05-31T07:34:03.380Z,13.40
2018-05-31T07:36:35.906Z,14.47
2018-05-31T07:39:08.197Z,13.33
2018-05-31T07:41:38.721Z,13.70
2018-05-31T07:44:08.724Z,13.97
2018-05-31T07:46:38.693Z,13.97
2018-05-31T07:49:08.706Z,14.10
2018-05-31T07:51:38.671Z,13.50
2018-05-31T07:54:08.680Z,14.00
2018-05-31T07:56:38.770Z,14.80
2018-05-31T07:59:08.794Z,14.10
2018-05-31T08:01:38.781Z,13.30
2018-05-31T08:04:08.821Z,14.60
2018-05-31T08:06:38.814Z,14.80
2018-05-31T08:09:08.814Z,14.43
2018-05-31T08:11:39.579Z,15.23
2018-05-31T08:14:09.578Z,16.03
2018-05-31T08:16:39.562Z,14.13
2018-05-31T08:19:09.609Z,15.03
2018-05-31T08:21:39.601Z,17.17
2018-05-31T08:24:09.660Z,16.33
2018-05-31T08:26:39.620Z,16.07
2018-05-31T08:29:09.617Z,16.47
2018-05-31T08:31:39.715Z,16.30
2018-05-31T08:34:09.733Z,17.33
2018-05-31T08:36:39.719Z,17.37
2018-05-31T08:39:10.515Z,15.37
2018-05-31T08:41:40.482Z,14.90
2018-05-31T08:44:10.566Z,13.23
2018-05-31T08:46:40.563Z,13.67
2018-05-31T08:49:10.575Z,13.40
2018-05-31T08:51:40.557Z,14.00
2018-05-31T08:54:10.606Z,14.40
2018-05-31T08:56:40.601Z,14.60
2018-05-31T08:59:10.620Z,14.83
2018-05-31T09:01:40.594Z,14.20
2018-05-31T09:04:10.597Z,13.67
2018-05-31T09:06:40.577Z,14.47
2018-05-31T09:09:10.616Z,13.97
2018-05-31T09:11:40.674Z,13.43
2018-05-31T09:14:11.443Z,13.17
2018-05-31T09:16:41.426Z,13.30
2018-05-31T09:19:12.230Z,14.00
2018-05-31T09:21:42.249Z,12.07
2018-05-31T09:24:12.215Z,11.83
2018-05-31T09:26:42.231Z,12.97
2018-05-31T09:29:12.199Z,12.73
2018-05-31T09:31:42.199Z,12.03
2018-05-31T09:34:12.162Z,11.60
2018-05-31T09:36:42.921Z,11.97
2018-05-31T09:39:12.966Z,11.53
2018-05-31T09:41:42.975Z,11.63
2018-05-31T09:44:12.969Z,11.67
2018-05-31T09:46:42.995Z,11.20
2018-05-31T09:49:12.979Z,11.73
2018-05-31T09:51:42.997Z,11.80
2018-05-31T09:54:12.965Z,12.67
2018-05-31T09:56:42.978Z,11.27
2018-05-31T09:59:12.961Z,10.37
2018-05-31T10:01:42.967Z,10.77
2018-05-31T10:04:12.945Z,10.87
2018-05-31T10:06:42.975Z,10.50
2018-05-31T10:09:13.738Z,10.77
2018-05-31T10:11:43.865Z,10.67
2018-05-31T10:14:13.867Z,10.47
2018-05-31T10:16:43.866Z,10.40
2018-05-31T10:19:14.649Z,11.10
2018-05-31T10:21:44.732Z,9.90
2018-05-31T10:24:15.487Z,9.80
2018-05-31T10:26:45.509Z,9.60
2018-05-31T10:29:15.514Z,9.20
2018-05-31T10:31:45.518Z,8.73
2018-05-31T10:34:16.249Z,9.13
2018-05-31T10:36:47.014Z,9.87
2018-05-31T10:39:17.026Z,9.83
2018-05-31T10:41:47.011Z,9.47
2018-05-31T10:44:17.735Z,9.47
2018-05-31T10:46:48.532Z,10.03
2018-05-31T10:49:18.500Z,10.37
2018-05-31T10:51:48.548Z,10.73
2018-05-31T10:54:18.524Z,10.30
2018-05-31T10:56:48.588Z,10.40
2018-05-31T10:59:18.555Z,10.73
2018-05-31T11:01:48.632Z,11.00
2018-05-31T11:04:18.682Z,10.70
2018-05-31T11:06:49.460Z,10.48
2018-05-31T11:09:19.461Z,10.30
2018-05-31T11:11:49.485Z,10.50
2018-05-31T11:14:20.236Z,9.67
2018-05-31T11:16:50.222Z,9.98
2018-05-31T11:19:20.195Z,9.77
2018-05-31T11:21:50.190Z,10.33
2018-05-31T11:24:20.153Z,9.07
2018-05-31T11:26:50.938Z,9.45
2018-05-31T11:29:20.929Z,9.52
2018-05-31T11:31:50.932Z,9.43
2018-05-31T11:34:20.915Z,9.43
2018-05-31T11:36:50.925Z,8.93
2018-05-31T11:39:20.925Z,8.30
2018-05-31T11:41:50.930Z,9.00
2018-05-31T11:44:20.921Z,8.20
2018-05-31T11:46:50.917Z,8.50
2018-05-31T11:49:21.005Z,9.23
2018-05-31T11:51:50.996Z,8.23
2018-05-31T11:54:20.972Z,8.38
2018-05-31T11:56:51.034Z,8.85
2018-05-31T11:59:21.006Z,8.70
2018-05-31T12:01:51.758Z,8.48
2018-05-31T12:04:21.762Z,8.05
2018-05-31T12:06:52.535Z,8.10
2018-05-31T12:09:22.502Z,8.93
2018-05-31T12:11:53.300Z,8.70
2018-05-31T12:14:23.292Z,8.40
2018-05-31T12:16:53.317Z,8.60
2018-05-31T12:19:23.284Z,8.85
2018-05-31T12:21:54.134Z,9.23
2018-05-31T12:24:24.878Z,8.57
2018-05-31T12:26:54.895Z,9.35
2018-05-31T12:29:24.861Z,8.98
2018-05-31T12:31:55.645Z,9.63
2018-05-31T12:34:25.609Z,9.27
2018-05-31T12:36:55.610Z,8.60
2018-05-31T12:39:25.560Z,9.07
2018-05-31T12:41:56.367Z,8.40
2018-05-31T12:44:26.340Z,8.48
2018-05-31T12:46:56.382Z,8.30
2018-05-31T12:49:26.335Z,8.50
2018-05-31T12:51:56.337Z,8.27
2018-05-31T12:54:26.324Z,8.02
2018-05-31T12:56:56.341Z,8.38
2018-05-31T12:59:26.365Z,7.93
2018-05-31T13:01:56.365Z,7.78
2018-05-31T13:04:26.328Z,6.93
2018-05-31T13:06:56.317Z,6.97
2018-05-31T13:09:26.276Z,7.87
2018-05-31T13:12:00.308Z,7.90
2018-05-31T13:14:30.301Z,7.30
2018-05-31T13:17:00.322Z,8.40
2018-05-31T13:19:31.036Z,8.43
2018-05-31T13:22:01.833Z,7.80
2018-05-31T13:24:31.798Z,7.43
2018-05-31T13:27:01.792Z,7.50
2018-05-31T13:29:32.549Z,8.00
2018-05-31T13:32:03.336Z,7.15
2018-05-31T13:34:33.306Z,7.30
2018-05-31T13:37:03.325Z,7.37
2018-05-31T13:39:33.347Z,7.87
2018-05-31T13:42:04.121Z,7.97
2018-05-31T13:44:34.075Z,7.50
2018-05-31T13:47:04.062Z,7.30
2018-05-31T13:49:34.017Z,7.47
2018-05-31T13:52:04.044Z,7.50
2018-05-31T13:54:34.780Z,7.07
2018-05-31T13:57:05.534Z,6.95
2018-05-31T13:59:35.529Z,7.20
2018-05-31T14:02:06.295Z,7.20
2018-05-31T14:04:37.062Z,7.15
2018-05-31T14:07:07.121Z,7.47
2018-05-31T14:09:37.887Z,7.28
2018-05-31T14:12:07.879Z,7.25
2018-05-31T14:14:37.849Z,6.90
2018-05-31T14:17:07.844Z,7.68
2018-05-31T14:19:37.805Z,7.32
2018-05-31T14:22:07.792Z,7.18
2018-05-31T14:24:37.756Z,7.18
2018-05-31T14:27:07.840Z,7.47
2018-05-31T14:29:37.821Z,7.25
2018-05-31T14:32:07.829Z,7.47
2018-05-31T14:34:38.676Z,7.07
2018-05-31T14:37:08.665Z,7.22
2018-05-31T14:39:38.628Z,7.05
2018-05-31T14:42:08.633Z,7.25
2018-05-31T14:44:38.597Z,7.12
2018-05-31T14:47:08.622Z,7.32
2018-05-31T14:49:38.634Z,6.85
2018-05-31T14:52:09.405Z,7.87
2018-05-31T14:54:39.360Z,6.87
2018-05-31T14:57:09.361Z,6.80
2018-05-31T14:59:39.366Z,6.75
2018-05-31T15:02:09.351Z,7.28
2018-05-31T15:04:39.395Z,7.05
2018-05-31T15:07:09.544Z,6.55
2018-05-31T15:09:39.570Z,7.50
2018-05-31T15:12:09.544Z,7.43
2018-05-31T15:14:39.538Z,7.47
2018-05-31T15:17:09.546Z,7.75
2018-05-31T15:19:39.542Z,7.15
2018-05-31T15:22:10.279Z,6.80
2018-05-31T15:24:40.301Z,7.03
2018-05-31T15:27:11.073Z,6.80
2018-05-31T15:29:41.065Z,7.07
2018-05-31T15:32:11.021Z,6.72
2018-05-31T15:34:41.034Z,6.82
2018-05-31T15:37:10.988Z,6.55
2018-05-31T15:39:41.745Z,6.62
2018-05-31T15:42:11.695Z,5.85
2018-05-31T15:44:41.696Z,6.47
2018-05-31T15:47:13.131Z,5.93
2018-05-31T15:49:43.179Z,6.75
2018-05-31T15:52:13.181Z,6.35
2018-05-31T15:54:43.168Z,6.30
2018-05-31T15:57:13.949Z,6.43
2018-05-31T15:59:43.942Z,7.03
2018-05-31T16:02:13.949Z,7.93
2018-05-31T16:04:43.965Z,6.37
2018-05-31T16:07:13.932Z,6.20
2018-05-31T16:09:43.933Z,7.60
2018-05-31T16:12:13.936Z,7.15
2018-05-31T16:14:43.923Z,7.85
2018-05-31T16:17:13.879Z,6.82
2018-05-31T16:19:43.859Z,7.55
2018-05-31T16:22:13.811Z,6.97
2018-05-31T16:24:43.820Z,7.22
2018-05-31T16:27:13.790Z,7.60
2018-05-31T16:29:43.796Z,6.95
2018-05-31T16:32:13.870Z,14.38
2018-05-31T16:34:43.873Z,8.55
2018-05-31T16:37:13.845Z,7.20
2018-05-31T16:39:44.611Z,7.37
2018-05-31T16:42:14.620Z,6.82
2018-05-31T16:44:44.734Z,6.78
2018-05-31T16:47:14.704Z,7.07
2018-05-31T16:49:44.725Z,7.15
2018-05-31T16:52:14.691Z,7.32
2018-05-31T16:54:46.098Z,13.13
2018-05-31T16:57:16.701Z,7.40
2018-05-31T16:59:46.871Z,6.60
2018-05-31T17:02:19.095Z,6.70
2018-05-31T17:04:49.088Z,6.68
2018-05-31T17:07:19.034Z,7.20
2018-05-31T17:09:49.862Z,7.80
2018-05-31T17:12:19.826Z,7.05
2018-05-31T17:14:50.683Z,7.60
2018-05-31T17:17:20.753Z,7.05
2018-05-31T17:19:51.007Z,6.20
2018-05-31T17:22:21.249Z,7.65
2018-05-31T17:24:51.839Z,6.78
2018-05-31T17:27:22.600Z,7.10
2018-05-31T17:29:52.950Z,9.32
2018-05-31T17:32:25.786Z,6.82
2018-05-31T17:34:59.067Z,6.93
2018-05-31T17:37:29.210Z,6.82
2018-05-31T17:39:59.272Z,6.93
2018-05-31T17:42:29.297Z,6.90
2018-05-31T17:44:59.295Z,6.95
2018-05-31T17:47:29.250Z,6.47
2018-05-31T17:49:59.266Z,6.37
2018-05-31T17:52:30.750Z,7.37
2018-05-31T17:55:00.764Z,6.57
2018-05-31T17:57:30.753Z,6.65
2018-05-31T18:00:01.572Z,7.55
2018-05-31T18:02:31.526Z,6.97
2018-05-31T18:05:02.291Z,6.90
2018-05-31T18:07:32.338Z,6.87
2018-05-31T18:10:02.332Z,5.78
2018-05-31T18:12:32.377Z,6.37
2018-05-31T18:15:02.405Z,5.80
2018-05-31T18:17:32.449Z,5.90
2018-05-31T18:20:02.458Z,5.80
2018-05-31T18:22:32.447Z,6.25
2018-05-31T18:25:03.212Z,6.00
2018-05-31T18:27:34.018Z,6.32
2018-05-31T18:30:03.994Z,6.70
2018-05-31T18:32:33.963Z,6.20
2018-05-31T18:35:04.023Z,6.37
2018-05-31T18:37:34.751Z,5.80
2018-05-31T18:40:04.821Z,5.67
2018-05-31T18:42:35.611Z,5.40
2018-05-31T18:45:05.682Z,5.87
2018-05-31T18:47:35.648Z,5.43
2018-05-31T18:50:05.697Z,4.83
2018-05-31T18:52:35.634Z,5.00
2018-05-31T18:55:06.402Z,5.50
2018-05-31T18:57:36.417Z,5.37
2018-05-31T19:00:06.467Z,5.47
2018-05-31T19:02:36.420Z,5.43
2018-05-31T19:05:07.193Z,5.23
2018-05-31T19:07:37.278Z,5.30
2018-05-31T19:10:08.067Z,5.47
2018-05-31T19:12:43.258Z,5.10
2018-05-31T19:15:21.631Z,5.00
2018-05-31T19:17:43.298Z,5.13
2018-05-31T19:20:13.458Z,4.97
2018-05-31T19:22:46.280Z,5.50
2018-05-31T19:25:21.065Z,5.37
2018-05-31T19:27:51.014Z,5.30
2018-05-31T19:30:26.454Z,5.23
2018-05-31T19:32:56.412Z,5.70
2018-05-31T19:35:31.699Z,5.20
2018-05-31T19:38:01.648Z,5.20
2018-05-31T19:40:31.657Z,5.83
2018-05-31T19:43:07.650Z,5.10
2018-05-31T19:45:37.816Z,5.00
2018-05-31T19:48:07.818Z,5.47
2018-05-31T19:50:37.807Z,5.63
2018-05-31T19:53:13.128Z,5.37
2018-05-31T19:55:43.195Z,5.20
2018-05-31T19:58:19.238Z,5.07
2018-05-31T20:00:54.386Z,5.37
2018-05-31T20:03:30.377Z,5.77
2018-05-31T20:06:00.387Z,5.40
2018-05-31T20:08:31.174Z,5.10
2018-05-31T20:11:01.187Z,4.83
2018-05-31T20:13:31.149Z,5.67
2018-05-31T20:16:01.206Z,4.97
2018-05-31T20:18:31.211Z,5.57
2018-05-31T20:21:02.356Z,5.40
2018-05-31T20:23:32.403Z,5.47
2018-05-31T20:26:02.395Z,5.27
2018-05-31T20:28:32.373Z,5.40
2018-05-31T20:31:03.631Z,5.67
2018-05-31T20:33:39.708Z,5.57
2018-05-31T20:36:17.169Z,5.33
2018-05-31T20:38:55.446Z,5.90
2018-05-31T20:41:40.185Z,5.70
2018-05-31T20:44:26.468Z,4.90
2018-05-31T20:47:12.884Z,4.80
2018-05-31T20:49:50.055Z,5.23
2018-05-31T20:52:25.149Z,5.30
2018-05-31T20:55:02.236Z,5.10
2018-05-31T20:57:38.779Z,5.47
2018-05-31T21:00:16.481Z,4.83
2018-05-31T21:02:55.552Z,5.63
2018-05-31T21:05:36.488Z,4.73
2018-05-31T21:08:13.937Z,5.23
2018-05-31T21:10:51.461Z,4.53
2018-05-31T21:13:28.345Z,5.27
2018-05-31T21:16:04.356Z,5.53
2018-05-31T21:18:43.947Z,5.50
2018-05-31T21:21:26.326Z,4.83
2018-05-31T21:23:58.171Z,5.10
2018-05-31T21:26:28.727Z,4.97
2018-05-31T21:28:59.795Z,5.40
2018-05-31T21:31:32.206Z,4.70
2018-05-31T21:34:03.357Z,5.20
2018-05-31T21:36:34.638Z,4.90
2018-05-31T21:39:05.952Z,5.83
2018-05-31T21:41:37.136Z,5.30
2018-05-31T21:44:07.578Z,4.77
2018-05-31T21:46:38.027Z,4.77
2018-05-31T21:49:08.465Z,5.37
2018-05-31T21:51:39.668Z,5.03
2018-05-31T21:54:10.011Z,5.18
2018-05-31T21:56:40.437Z,4.67
2018-05-31T21:59:10.793Z,5.30
2018-05-31T22:01:42.050Z,4.83
2018-05-31T22:04:13.254Z,3.80
2018-05-31T22:06:43.707Z,5.70
2018-05-31T22:09:14.798Z,4.60
2018-05-31T22:11:45.274Z,4.90
2018-05-31T22:14:15.761Z,4.40
2018-05-31T22:16:46.279Z,4.60
2018-05-31T22:19:17.546Z,4.80
2018-05-31T22:21:48.001Z,4.90
2018-05-31T22:24:18.533Z,4.73
2018-05-31T22:26:49.067Z,4.83
2018-05-31T22:29:19.441Z,4.97
2018-05-31T22:31:49.961Z,4.53
2018-05-31T22:34:20.302Z,4.50
2018-05-31T22:36:50.693Z,4.60
2018-05-31T22:39:21.905Z,4.70
2018-05-31T22:41:52.512Z,5.07
2018-05-31T22:44:22.871Z,4.87
2018-05-31T22:46:53.382Z,4.80
2018-05-31T22:49:23.709Z,5.07
2018-05-31T22:51:54.233Z,4.87
2018-05-31T22:54:24.608Z,4.43
2018-05-31T22:56:55.114Z,4.33
2018-05-31T22:59:26.288Z,4.37
2018-05-31T23:01:56.759Z,4.60
2018-05-31T23:04:27.972Z,4.60
2018-05-31T23:06:58.448Z,4.90
2018-05-31T23:09:29.721Z,4.07
2018-05-31T23:12:00.980Z,4.23
2018-05-31T23:14:32.229Z,4.40
2018-05-31T23:17:02.800Z,4.17
2018-05-31T23:19:33.151Z,4.20
2018-05-31T23:22:03.696Z,4.07
2018-05-31T23:24:34.892Z,4.83
2018-05-31T23:27:05.411Z,4.43
2018-05-31T23:29:35.790Z,4.50
2018-05-31T23:32:07.128Z,4.40
2018-05-31T23:34:38.317Z,4.50
2018-05-31T23:37:08.845Z,3.97
2018-05-31T23:39:39.292Z,4.33
2018-05-31T23:42:09.896Z,4.33
2018-05-31T23:44:40.382Z,4.27
2018-05-31T23:47:11.669Z,4.60
2018-05-31T23:49:42.069Z,4.50
2018-05-31T23:52:12.573Z,4.60
2018-05-31T23:54:43.024Z,4.67
2018-05-31T23:57:13.806Z,4.33
2018-05-31T23:59:44.296Z,4.30
